Terminal Aerodrome Forecast
Issued by NWS

Home | Current Version | Previous Version | Text Only | Print | Product List | Glossary On
Versions: 1 2 3 4 5 6 7 8 9 10 11 12 13 14 15 16 17 18 19 20 21 22
000
FTUS45 KBYZ 200034 AAA
TAFLVM
TAF AMD
KLVM 200034Z 2001/2024 26011KT 6SM -SN BR BKN035
      TEMPO 2001/2003 3SM -SN BR OVC015
     FM200500 25012KT 6SM -SN SCT025 BKN050 OVC100
     FM200900 25011KT P6SM BKN060
     FM201700 25010G18KT P6SM SCT050=

USA.gov is the U.S. government's official web portal to all federal, state and local government web resources and services.